Time;durP1;ratioP1;P1;durP2;ratioP2;P2;SDS_P1;SDS_P2;PMS_P1;PMS_P2;Temp;Humidity;BMP_temperature;BMP_pressure;BME280_temperature;BME280_humidity;BME280_pressure;Samples;Min_cycle;Max_cycle;Signal;HPM_P1;HPM_P2
2022/07/18 00:00:28;;;;;;;0.60;0.60;;;15.40;99.90;;;;;;5097202;28;20032;-74
2022/07/18 00:02:54;;;;;;;0.40;0.40;;;15.40;99.90;;;;;;5097888;28;20027;-74
2022/07/18 00:05:19;;;;;;;0.40;0.40;;;15.40;99.90;;;;;;5080106;28;20515;-74
2022/07/18 00:07:45;;;;;;;0.30;0.30;;;15.40;99.90;;;;;;5097550;28;20028;-74
2022/07/18 00:10:11;;;;;;;1.08;0.57;;;15.30;99.90;;;;;;5079642;28;20031;-74
2022/07/18 00:12:37;;;;;;;0.40;0.40;;;15.30;99.90;;;;;;5096711;28;20024;-74
2022/07/18 00:15:04;;;;;;;0.38;0.35;;;15.30;99.90;;;;;;5097222;28;20046;-74
2022/07/18 00:17:29;;;;;;;0.40;0.40;;;15.20;99.90;;;;;;5097453;28;20028;-74
2022/07/18 00:19:55;;;;;;;0.50;0.50;;;15.10;99.90;;;;;;5097714;28;20375;-73
2022/07/18 00:22:21;;;;;;;0.30;0.30;;;15.10;99.90;;;;;;5079469;28;20059;-74
2022/07/18 00:24:47;;;;;;;0.35;0.35;;;15.10;99.90;;;;;;5079381;28;20472;-74
2022/07/18 00:27:12;;;;;;;4.30;0.28;;;15.10;99.90;;;;;;5079582;28;20057;-74
2022/07/18 00:29:39;;;;;;;0.30;0.30;;;15.10;99.90;;;;;;5098174;28;20022;-74
2022/07/18 00:32:06;;;;;;;0.60;0.60;;;15.10;99.90;;;;;;5079429;28;20028;-74
2022/07/18 00:34:32;;;;;;;0.40;0.40;;;15.00;99.90;;;;;;5096490;28;20023;-74
2022/07/18 00:36:57;;;;;;;0.93;0.25;;;15.00;99.90;;;;;;5095440;28;20098;-74
2022/07/18 00:39:24;;;;;;;0.82;0.82;;;14.90;99.90;;;;;;5097621;28;20121;-74
2022/07/18 00:41:50;;;;;;;0.28;0.28;;;14.90;99.90;;;;;;5097611;28;20051;-74
2022/07/18 00:44:20;;;;;;;0.40;0.40;;;14.90;99.90;;;;;;5079153;28;20027;-74
2022/07/18 00:46:48;;;;;;;0.20;0.20;;;14.90;99.90;;;;;;5097237;28;20020;-74
2022/07/18 00:49:13;;;;;;;0.25;0.20;;;14.90;99.90;;;;;;5078930;28;20079;-74
2022/07/18 00:51:39;;;;;;;0.15;0.15;;;14.90;99.90;;;;;;5096555;28;20055;-74
2022/07/18 00:54:05;;;;;;;0.30;0.30;;;14.90;99.90;;;;;;5095165;28;20093;-74
2022/07/18 00:56:31;;;;;;;0.30;0.30;;;15.00;99.90;;;;;;5094821;28;20051;-73
2022/07/18 00:58:57;;;;;;;0.70;0.70;;;14.90;99.90;;;;;;5075896;28;20047;-74
2022/07/18 01:04:07;;;;;;;0.90;0.32;;;14.80;99.90;;;;;;5094772;28;20039;-74
2022/07/18 01:06:33;;;;;;;0.32;0.32;;;14.80;99.90;;;;;;5077525;28;20028;-74
2022/07/18 01:08:58;;;;;;;0.40;0.40;;;14.80;99.90;;;;;;5094757;28;20031;-74
2022/07/18 01:11:24;;;;;;;0.30;0.25;;;14.80;99.90;;;;;;5096187;28;20024;-74
2022/07/18 01:13:50;;;;;;;0.32;0.32;;;14.70;99.90;;;;;;5077111;28;20028;-74
2022/07/18 01:16:17;;;;;;;0.40;0.30;;;14.60;99.90;;;;;;5095298;28;20027;-74
2022/07/18 01:18:50;;;;;;;0.30;0.30;;;14.50;99.90;;;;;;5094725;28;20020;-74
2022/07/18 01:21:16;;;;;;;0.60;0.60;;;14.40;99.90;;;;;;5094260;28;20035;-74
2022/07/18 01:23:44;;;;;;;0.30;0.30;;;14.30;99.90;;;;;;5094303;28;20052;-74
2022/07/18 01:26:12;;;;;;;1.17;0.63;;;14.30;99.90;;;;;;5075962;28;20392;-74
2022/07/18 01:28:38;;;;;;;0.20;0.20;;;14.20;99.90;;;;;;5094880;28;20016;-74
2022/07/18 01:31:04;;;;;;;1.58;0.30;;;14.20;99.90;;;;;;5076695;28;20384;-75
2022/07/18 01:33:33;;;;;;;0.22;0.22;;;14.20;99.90;;;;;;5098790;28;20050;-73
2022/07/18 01:36:04;;;;;;;0.35;0.35;;;14.10;99.90;;;;;;5100052;28;20050;-74
2022/07/18 01:38:31;;;;;;;0.20;0.20;;;14.00;99.90;;;;;;5099270;28;20020;-74
2022/07/18 01:40:57;;;;;;;0.50;0.50;;;13.90;99.90;;;;;;5099872;28;20032;-73
2022/07/18 01:43:24;;;;;;;1.08;0.95;;;13.90;99.90;;;;;;5077377;28;20111;-74
2022/07/18 01:45:50;;;;;;;0.22;0.22;;;13.90;99.90;;;;;;5096669;28;20024;-75
2022/07/18 01:48:15;;;;;;;0.30;0.30;;;13.90;99.90;;;;;;5080006;28;20054;-76
2022/07/18 01:50:41;;;;;;;0.98;0.52;;;13.80;99.90;;;;;;5096744;28;20504;-74
2022/07/18 01:53:07;;;;;;;0.20;0.20;;;13.80;99.90;;;;;;5098649;28;20055;-73
2022/07/18 01:55:33;;;;;;;0.45;0.38;;;13.80;99.90;;;;;;5081511;28;20020;-74
2022/07/18 01:57:59;;;;;;;0.30;0.30;;;13.80;99.90;;;;;;5100206;28;20028;-73
2022/07/18 02:00:24;;;;;;;0.57;0.57;;;13.80;99.90;;;;;;5102230;28;20468;-74
2022/07/18 02:02:50;;;;;;;0.20;0.20;;;13.80;99.90;;;;;;5083588;28;20040;-73
2022/07/18 02:05:17;;;;;;;0.40;0.40;;;13.80;99.90;;;;;;5100582;28;20023;-73
2022/07/18 02:07:43;;;;;;;0.50;0.50;;;13.70;99.90;;;;;;5101066;28;20473;-73
2022/07/18 02:10:15;;;;;;;0.50;0.50;;;13.60;99.90;;;;;;5100369;28;20028;-73
2022/07/18 02:12:41;;;;;;;0.40;0.40;;;13.60;99.90;;;;;;5082012;28;20404;-73
2022/07/18 02:15:08;;;;;;;0.93;0.65;;;13.60;99.90;;;;;;5100896;28;20016;-74
2022/07/18 02:17:35;;;;;;;0.40;0.30;;;13.60;99.90;;;;;;5097801;28;20016;-73
2022/07/18 02:20:01;;;;;;;0.20;0.20;;;13.60;99.90;;;;;;5101681;28;20093;-73
2022/07/18 02:22:27;;;;;;;1.83;0.55;;;13.50;99.90;;;;;;5101263;28;20469;-74
2022/07/18 02:24:53;;;;;;;0.50;0.50;;;13.50;99.90;;;;;;5084295;28;20023;-74
2022/07/18 02:27:19;;;;;;;0.30;0.30;;;13.40;99.90;;;;;;5104719;28;20032;-73
2022/07/18 02:29:45;;;;;;;0.65;0.57;;;13.30;99.90;;;;;;5102980;28;20145;-73
2022/07/18 02:32:11;;;;;;;0.30;0.30;;;13.20;99.90;;;;;;5102410;28;20087;-74
2022/07/18 02:34:37;;;;;;;0.32;0.32;;;13.20;99.90;;;;;;5103894;28;20476;-73
2022/07/18 02:37:03;;;;;;;0.57;0.57;;;13.20;99.90;;;;;;5103454;28;20020;-74
2022/07/18 02:39:29;;;;;;;0.20;0.20;;;13.20;99.90;;;;;;5085176;28;20120;-73
2022/07/18 02:41:55;;;;;;;0.77;0.77;;;13.20;99.90;;;;;;5102820;28;20036;-74
2022/07/18 02:44:21;;;;;;;0.30;0.30;;;13.10;99.90;;;;;;5085608;28;20022;-74
2022/07/18 02:46:47;;;;;;;0.70;0.60;;;13.10;99.90;;;;;;5105117;28;20051;-76
2022/07/18 02:49:26;;;;;;;0.50;0.50;;;13.10;99.90;;;;;;5106710;28;20024;-77
2022/07/18 02:52:12;;;;;;;0.60;0.60;;;13.00;99.90;;;;;;5106811;28;20024;-74
2022/07/18 02:54:38;;;;;;;2.15;0.50;;;13.00;99.90;;;;;;5103014;28;20040;-74
2022/07/18 02:57:04;;;;;;;0.40;0.40;;;13.00;99.90;;;;;;5102817;28;20020;-73
2022/07/18 02:59:30;;;;;;;0.40;0.40;;;13.00;99.90;;;;;;5103843;28;20024;-74
2022/07/18 03:01:57;;;;;;;2.58;0.77;;;13.00;99.90;;;;;;5104007;28;20039;-75
2022/07/18 03:04:23;;;;;;;0.30;0.30;;;13.00;99.90;;;;;;5103852;28;20123;-73
2022/07/18 03:06:49;;;;;;;0.60;0.60;;;13.00;99.90;;;;;;5102424;28;20502;-74
2022/07/18 03:09:16;;;;;;;0.45;0.45;;;13.00;99.90;;;;;;5087153;28;20087;-75
2022/07/18 03:11:42;;;;;;;0.40;0.40;;;13.00;99.90;;;;;;5086274;28;20115;-74
2022/07/18 03:14:08;;;;;;;0.47;0.47;;;13.00;99.90;;;;;;5103149;28;20073;-74
2022/07/18 03:16:35;;;;;;;0.45;0.40;;;12.90;99.90;;;;;;5102545;28;20020;-74
2022/07/18 03:19:00;;;;;;;5.68;1.67;;;12.90;99.90;;;;;;5102178;28;20028;-76
2022/07/18 03:21:26;;;;;;;0.30;0.30;;;12.80;99.90;;;;;;5084137;28;20058;-73
2022/07/18 03:23:52;;;;;;;0.40;0.40;;;12.70;99.90;;;;;;5101952;28;20020;-76
2022/07/18 03:26:18;;;;;;;0.28;0.28;;;12.60;99.90;;;;;;5102957;28;20389;-74
2022/07/18 03:28:47;;;;;;;1.00;0.50;;;12.50;99.90;;;;;;5104724;28;20020;-75
2022/07/18 03:31:13;;;;;;;0.38;0.38;;;12.50;99.90;;;;;;5106061;28;20042;-74
2022/07/18 03:33:40;;;;;;;0.40;0.30;;;12.50;99.90;;;;;;5105572;28;20079;-73
2022/07/18 03:36:06;;;;;;;5.18;0.82;;;12.50;99.90;;;;;;5101341;28;20024;-73
2022/07/18 03:38:32;;;;;;;0.30;0.30;;;12.40;99.90;;;;;;5100379;28;20021;-73
2022/07/18 03:40:57;;;;;;;0.40;0.40;;;12.40;99.90;;;;;;5100520;28;20028;-74
2022/07/18 03:43:23;;;;;;;0.70;0.50;;;12.50;99.90;;;;;;5099538;28;20024;-73
2022/07/18 03:45:49;;;;;;;0.40;0.40;;;12.60;99.90;;;;;;5099146;28;20020;-73
2022/07/18 03:48:15;;;;;;;2.53;1.70;;;12.50;99.90;;;;;;5098988;28;20501;-74
2022/07/18 03:50:41;;;;;;;0.28;0.28;;;12.50;99.90;;;;;;5099320;28;20083;-74
2022/07/18 03:53:06;;;;;;;1.33;0.80;;;12.50;99.90;;;;;;5098318;28;20050;-73
2022/07/18 03:55:32;;;;;;;0.75;0.55;;;12.40;99.90;;;;;;5098540;28;20027;-73
2022/07/18 03:57:57;;;;;;;2.22;0.60;;;12.40;99.90;;;;;;5080930;28;20388;-73
2022/07/18 04:00:23;;;;;;;0.40;0.40;;;12.30;99.90;;;;;;5097820;28;20516;-73
2022/07/18 04:02:49;;;;;;;0.28;0.28;;;12.10;99.90;;;;;;5097827;28;20111;-73
2022/07/18 04:05:15;;;;;;;0.60;0.60;;;12.10;99.90;;;;;;5098594;28;20046;-74
2022/07/18 04:07:42;;;;;;;0.63;0.63;;;12.20;99.90;;;;;;5098379;28;20384;-74
2022/07/18 04:10:09;;;;;;;0.30;0.30;;;12.20;99.90;;;;;;5098035;28;20024;-73
2022/07/18 04:12:43;;;;;;;0.63;0.63;;;12.30;99.90;;;;;;5097836;28;20024;-74
2022/07/18 04:15:09;;;;;;;0.20;0.20;;;12.30;99.90;;;;;;5099038;28;20031;-74
2022/07/18 04:17:35;;;;;;;2.80;0.60;;;12.40;99.90;;;;;;5097769;28;20376;-74
2022/07/18 04:20:01;;;;;;;0.45;0.45;;;12.50;99.90;;;;;;5098660;28;20503;-74
2022/07/18 04:22:26;;;;;;;0.47;0.47;;;12.60;99.90;;;;;;5098871;28;20476;-74
2022/07/18 04:24:52;;;;;;;0.50;0.50;;;12.60;99.90;;;;;;5098306;28;20473;-74
2022/07/18 04:27:18;;;;;;;0.40;0.40;;;12.60;99.90;;;;;;5098324;28;20103;-73
2022/07/18 04:29:43;;;;;;;0.75;0.43;;;12.70;99.90;;;;;;5099008;28;20469;-73
2022/07/18 04:32:09;;;;;;;0.73;0.22;;;12.80;99.90;;;;;;5081057;28;20062;-73
2022/07/18 04:34:34;;;;;;;3.63;1.65;;;12.90;99.90;;;;;;5099570;28;20024;-74
2022/07/18 04:37:00;;;;;;;1.10;0.68;;;12.90;99.90;;;;;;5099339;28;20024;-73
2022/07/18 04:39:26;;;;;;;0.50;0.50;;;13.00;99.90;;;;;;5080164;28;20016;-73
2022/07/18 04:41:51;;;;;;;0.40;0.40;;;13.10;99.90;;;;;;5098816;28;20028;-73
2022/07/18 04:44:17;;;;;;;0.40;0.20;;;13.20;99.90;;;;;;5080763;28;20107;-73
2022/07/18 04:46:43;;;;;;;0.63;0.63;;;13.30;99.90;;;;;;5077726;28;20500;-74
2022/07/18 04:49:08;;;;;;;0.57;0.57;;;13.30;99.90;;;;;;5076979;28;20501;-73
2022/07/18 04:51:34;;;;;;;0.55;0.50;;;13.40;99.90;;;;;;5095685;28;20166;-73
2022/07/18 04:54:00;;;;;;;0.50;0.50;;;13.60;99.90;;;;;;5094817;28;20044;-74
2022/07/18 04:56:25;;;;;;;0.38;0.38;;;13.70;99.90;;;;;;5094070;28;20069;-74
2022/07/18 04:58:51;;;;;;;0.30;0.30;;;13.90;99.90;;;;;;5075542;28;20031;-74
2022/07/18 05:01:17;;;;;;;0.45;0.45;;;14.00;99.90;;;;;;5093623;28;20114;-74
2022/07/18 05:03:43;;;;;;;0.70;0.70;;;14.10;99.90;;;;;;5075459;28;20053;-74
2022/07/18 05:06:08;;;;;;;8.77;2.38;;;14.20;99.90;;;;;;5093943;28;20107;-74
2022/07/18 05:08:34;;;;;;;0.40;0.40;;;14.40;99.90;;;;;;5094801;28;20461;-74
2022/07/18 05:10:59;;;;;;;0.30;0.30;;;14.50;99.90;;;;;;5094092;28;20468;-74
2022/07/18 05:13:25;;;;;;;0.80;0.77;;;14.60;99.90;;;;;;5095369;28;20024;-74
2022/07/18 05:15:51;;;;;;;0.55;0.55;;;14.70;99.90;;;;;;5095045;28;20490;-74
2022/07/18 05:18:17;;;;;;;1.25;1.15;;;14.80;99.90;;;;;;5095068;28;20102;-74
2022/07/18 05:20:43;;;;;;;0.80;0.80;;;14.90;99.90;;;;;;5076431;28;20039;-74
2022/07/18 05:23:09;;;;;;;0.50;0.50;;;14.90;99.90;;;;;;5075094;28;20362;-74
2022/07/18 05:25:35;;;;;;;0.30;0.30;;;14.90;99.90;;;;;;5093322;28;20054;-72
2022/07/18 05:28:01;;;;;;;5.78;0.55;;;15.00;99.90;;;;;;5093431;28;20054;-74
2022/07/18 05:30:26;;;;;;;1.00;1.00;;;15.10;99.90;;;;;;5093363;28;20024;-74
2022/07/18 05:32:53;;;;;;;0.60;0.60;;;15.20;99.90;;;;;;5075079;28;20028;-73
2022/07/18 05:35:19;;;;;;;0.68;0.32;;;15.30;99.90;;;;;;5075049;28;20541;-73
2022/07/18 05:37:45;;;;;;;0.30;0.30;;;15.40;99.90;;;;;;5093179;28;20065;-73
2022/07/18 05:40:12;;;;;;;1.15;1.15;;;15.50;99.90;;;;;;5074939;28;20115;-74
2022/07/18 05:42:38;;;;;;;0.40;0.40;;;15.70;99.90;;;;;;5092981;28;20028;-73
2022/07/18 05:45:06;;;;;;;0.90;0.90;;;15.80;99.90;;;;;;5074925;28;20031;-73
2022/07/18 05:47:31;;;;;;;0.30;0.30;;;15.90;99.90;;;;;;5093038;28;20081;-74
2022/07/18 05:49:57;;;;;;;0.35;0.35;;;16.10;99.90;;;;;;5093048;28;20512;-74
2022/07/18 05:52:22;;;;;;;1.55;1.45;;;16.20;99.90;;;;;;5093008;28;20071;-74
2022/07/18 05:54:48;;;;;;;0.60;0.50;;;16.40;99.90;;;;;;5093110;28;20039;-73
2022/07/18 05:57:14;;;;;;;1.10;0.70;;;16.50;99.90;;;;;;5092989;28;20032;-73
2022/07/18 05:59:39;;;;;;;1.95;0.28;;;16.60;99.90;;;;;;5094744;28;20060;-73
2022/07/18 06:02:05;;;;;;;0.45;0.32;;;16.80;99.90;;;;;;5097027;28;20090;-74
2022/07/18 06:04:31;;;;;;;0.32;0.32;;;17.00;99.90;;;;;;5079416;28;20016;-74
2022/07/18 06:06:57;;;;;;;0.52;0.52;;;17.20;99.90;;;;;;5097072;28;20115;-75
2022/07/18 06:09:22;;;;;;;0.93;0.93;;;17.40;99.90;;;;;;5097197;28;20480;-73
2022/07/18 06:11:48;;;;;;;0.70;0.70;;;17.50;99.90;;;;;;5097010;28;20055;-74
2022/07/18 06:14:14;;;;;;;0.88;0.20;;;17.70;99.90;;;;;;5096867;28;20089;-73
2022/07/18 06:16:41;;;;;;;0.82;0.60;;;18.00;99.90;;;;;;5096700;28;20642;-74
2022/07/18 06:19:06;;;;;;;0.55;0.55;;;18.90;99.90;;;;;;5078590;28;20069;-74
2022/07/18 06:21:32;;;;;;;0.40;0.40;;;19.80;99.90;;;;;;5096628;28;20032;-74
2022/07/18 06:23:58;;;;;;;0.68;0.68;;;20.40;98.60;;;;;;5096978;28;20078;-74
2022/07/18 06:26:23;;;;;;;0.85;0.85;;;20.40;96.70;;;;;;5078596;28;20035;-74
2022/07/18 06:28:49;;;;;;;0.43;0.43;;;20.30;96.50;;;;;;5078569;28;20031;-77
2022/07/18 06:31:18;;;;;;;0.80;0.80;;;20.10;97.80;;;;;;5096930;28;20020;-77
2022/07/18 06:33:44;;;;;;;0.35;0.35;;;19.90;99.30;;;;;;5096536;28;20465;-75
2022/07/18 06:36:11;;;;;;;0.35;0.35;;;19.90;99.90;;;;;;5081114;28;20032;-73
2022/07/18 06:38:38;;;;;;;4.70;0.80;;;19.80;99.90;;;;;;5100222;28;20044;-74
2022/07/18 06:41:04;;;;;;;3.50;1.58;;;19.70;99.90;;;;;;5096431;28;20064;-74
2022/07/18 06:43:29;;;;;;;0.50;0.50;;;19.70;99.90;;;;;;5080584;28;20043;-74
2022/07/18 06:45:57;;;;;;;1.10;0.57;;;19.80;99.90;;;;;;5099169;28;20090;-74
2022/07/18 06:48:23;;;;;;;0.55;0.55;;;19.90;99.90;;;;;;5100283;28;20488;-75
2022/07/18 06:50:49;;;;;;;0.52;0.52;;;20.30;99.90;;;;;;5096277;28;20028;-76
2022/07/18 06:53:15;;;;;;;0.60;0.60;;;21.10;99.00;;;;;;5095369;28;20380;-75
2022/07/18 06:55:41;;;;;;;1.02;0.60;;;22.20;96.00;;;;;;5078938;28;20017;-74
2022/07/18 06:58:07;;;;;;;0.57;0.57;;;23.40;89.50;;;;;;5095302;28;20024;-76
2022/07/18 07:00:32;;;;;;;0.50;0.50;;;24.90;75.60;;;;;;5094803;28;20026;-76
2022/07/18 07:02:58;;;;;;;0.68;0.68;;;26.30;67.40;;;;;;5076418;28;20032;-77
2022/07/18 07:05:23;;;;;;;0.30;0.30;;;27.50;62.90;;;;;;5076834;28;20024;-74
2022/07/18 07:07:49;;;;;;;1.02;0.63;;;28.60;59.50;;;;;;5094757;28;20032;-74
2022/07/18 07:10:17;;;;;;;0.43;0.43;;;29.20;56.40;;;;;;5094236;28;20070;-74
2022/07/18 07:12:45;;;;;;;0.60;0.60;;;29.40;55.80;;;;;;5094539;28;20020;-76
2022/07/18 07:15:11;;;;;;;0.68;0.65;;;29.70;55.00;;;;;;5094628;28;20020;-75
2022/07/18 07:17:38;;;;;;;0.75;0.73;;;30.00;53.50;;;;;;5076413;28;20054;-74
2022/07/18 07:20:06;;;;;;;0.60;0.60;;;29.80;52.30;;;;;;5076506;28;20033;-75
2022/07/18 07:22:40;;;;;;;0.73;0.73;;;29.30;53.00;;;;;;5094483;28;20047;-73
2022/07/18 07:25:06;;;;;;;1.23;1.13;;;29.00;55.00;;;;;;5094214;28;20476;-76
2022/07/18 07:27:32;;;;;;;0.45;0.43;;;28.40;54.30;;;;;;5093817;28;20130;-75
2022/07/18 07:29:57;;;;;;;0.50;0.50;;;28.70;54.40;;;;;;5075917;28;20020;-74
2022/07/18 07:32:23;;;;;;;0.98;0.35;;;28.60;53.60;;;;;;5075433;28;20090;-75
2022/07/18 07:34:49;;;;;;;0.50;0.50;;;28.10;53.50;;;;;;5075678;28;20024;-77
2022/07/18 07:37:14;;;;;;;0.32;0.30;;;28.50;53.30;;;;;;5075814;28;20035;-74
2022/07/18 07:39:40;;;;;;;0.70;0.60;;;29.10;52.40;;;;;;5093822;28;20028;-77
2022/07/18 07:42:06;;;;;;;1.13;0.70;;;29.40;51.50;;;;;;5075466;28;20055;-79
2022/07/18 07:44:31;;;;;;;0.75;0.50;;;30.10;50.40;;;;;;5093875;28;20095;-77
2022/07/18 07:46:59;;;;;;;0.63;0.43;;;30.80;49.00;;;;;;5075424;28;20028;-76
2022/07/18 07:49:25;;;;;;;0.38;0.38;;;31.40;47.90;;;;;;5075318;28;20050;-77
2022/07/18 07:51:50;;;;;;;0.40;0.40;;;31.90;47.00;;;;;;5093527;28;20032;-80
2022/07/18 07:54:16;;;;;;;0.10;0.10;;;32.30;46.60;;;;;;5021634;28;1465821;-79
2022/07/18 07:56:42;;;;;;;0.65;0.60;;;32.60;45.10;;;;;;5073364;28;20159;-78
2022/07/18 07:59:07;;;;;;;1.45;1.08;;;32.80;45.40;;;;;;5073354;28;20024;-75
2022/07/18 08:01:33;;;;;;;1.40;0.57;;;32.60;45.30;;;;;;5074635;28;20037;-75
2022/07/18 08:03:59;;;;;;;0.73;0.73;;;32.90;45.50;;;;;;5073508;28;20373;-76
2022/07/18 08:06:24;;;;;;;0.50;0.50;;;32.90;45.50;;;;;;5073131;28;20115;-76
2022/07/18 08:08:50;;;;;;;0.40;0.40;;;32.40;45.10;;;;;;5074223;28;20481;-78
2022/07/18 08:11:16;;;;;;;0.82;0.82;;;32.50;45.60;;;;;;5074648;28;20028;-76
2022/07/18 08:13:41;;;;;;;0.43;0.43;;;32.00;45.70;;;;;;5074222;28;20039;-76
2022/07/18 08:16:07;;;;;;;0.60;0.57;;;31.70;45.20;;;;;;5072832;28;20035;-76
2022/07/18 08:18:33;;;;;;;2.28;0.63;;;32.10;45.60;;;;;;5074345;28;20024;-76
2022/07/18 08:20:58;;;;;;;0.65;0.65;;;33.00;44.70;;;;;;5074037;28;20115;-78
2022/07/18 08:23:24;;;;;;;0.57;0.57;;;33.90;43.50;;;;;;5072013;28;20024;-75
2022/07/18 08:25:50;;;;;;;0.20;0.20;;;34.40;43.80;;;;;;5074057;28;20029;-78
2022/07/18 08:28:15;;;;;;;1.65;0.45;;;34.60;44.00;;;;;;5073964;28;20023;-77
2022/07/18 08:30:41;;;;;;;1.02;0.90;;;34.70;42.30;;;;;;5074167;28;20474;-76
2022/07/18 08:33:07;;;;;;;0.60;0.60;;;34.20;42.10;;;;;;5074003;28;20052;-74
2022/07/18 08:35:33;;;;;;;0.63;0.63;;;34.00;42.40;;;;;;5072747;28;20047;-78
2022/07/18 08:38:00;;;;;;;0.88;0.50;;;33.10;43.60;;;;;;5072478;28;20029;-77
2022/07/18 08:40:26;;;;;;;0.30;0.30;;;33.30;42.60;;;;;;5073831;28;20376;-77
2022/07/18 08:42:54;;;;;;;0.40;0.40;;;33.50;41.80;;;;;;5072401;28;20028;-76
2022/07/18 08:45:22;;;;;;;0.68;0.40;;;31.80;42.30;;;;;;5072127;28;20472;-74
2022/07/18 08:47:48;;;;;;;0.35;0.35;;;31.00;45.70;;;;;;5073413;28;20112;-74
2022/07/18 08:50:14;;;;;;;2.33;1.48;;;31.50;45.50;;;;;;5073308;28;20017;-74
2022/07/18 08:52:40;;;;;;;0.40;0.32;;;32.10;45.60;;;;;;5078832;28;20083;-75
2022/07/18 08:55:09;;;;;;;0.68;0.60;;;32.60;44.50;;;;;;5093442;28;20501;-74
2022/07/18 08:57:34;;;;;;;0.40;0.40;;;33.30;43.90;;;;;;5093470;28;20402;-74
2022/07/18 09:00:04;;;;;;;2.17;1.15;;;33.80;42.30;;;;;;5093408;28;20111;-74
2022/07/18 09:02:29;;;;;;;1.38;0.65;;;33.90;41.80;;;;;;5075012;28;20037;-74
2022/07/18 09:04:55;;;;;;;1.90;0.65;;;34.10;42.50;;;;;;5093348;28;20027;-75
2022/07/18 09:07:30;;;;;;;0.63;0.38;;;34.10;42.20;;;;;;5075153;28;20036;-74
2022/07/18 09:09:58;;;;;;;1.75;1.02;;;33.90;43.40;;;;;;5094834;28;20085;-74
2022/07/18 09:12:26;;;;;;;1.05;1.05;;;33.40;44.20;;;;;;5074802;28;20028;-74
2022/07/18 09:14:53;;;;;;;0.87;0.50;;;33.10;43.40;;;;;;5092839;28;20034;-73
2022/07/18 09:17:28;;;;;;;0.70;0.70;;;32.80;43.00;;;;;;5093042;28;20024;-73
2022/07/18 09:19:57;;;;;;;0.55;0.50;;;32.00;46.30;;;;;;5092716;28;20017;-73
2022/07/18 09:22:24;;;;;;;1.45;0.68;;;31.90;45.40;;;;;;5074747;28;20032;-73
2022/07/18 09:24:52;;;;;;;1.20;1.00;;;32.30;45.40;;;;;;5092898;28;20077;-73
2022/07/18 09:27:45;;;;;;;1.45;0.70;;;32.20;45.90;;;;;;5074823;28;20028;-73
2022/07/18 09:30:17;;;;;;;4.43;1.23;;;31.80;46.00;;;;;;5092910;28;20473;-73
2022/07/18 09:33:08;;;;;;;7.88;0.73;;;31.70;45.10;;;;;;5074497;28;20028;-74
2022/07/18 09:35:43;;;;;;;0.35;0.35;;;31.80;45.70;;;;;;5092697;28;20016;-74
2022/07/18 09:38:11;;;;;;;0.80;0.70;;;31.40;45.70;;;;;;5092706;28;20166;-72
2022/07/18 09:40:38;;;;;;;1.85;0.68;;;31.00;46.30;;;;;;5093226;28;20148;-74
2022/07/18 09:43:05;;;;;;;0.30;0.30;;;30.80;45.90;;;;;;5093244;28;20509;-73
2022/07/18 09:45:34;;;;;;;0.68;0.40;;;31.10;47.30;;;;;;5093349;28;20031;-74
2022/07/18 09:48:11;;;;;;;0.40;0.40;;;30.90;45.20;;;;;;5093185;28;20065;-74
2022/07/18 09:50:45;;;;;;;0.30;0.30;;;30.60;46.70;;;;;;5093105;28;20361;-75
2022/07/18 09:53:16;;;;;;;0.50;0.50;;;30.70;47.00;;;;;;5092730;28;20378;-74
2022/07/18 09:55:48;;;;;;;22.02;1.27;;;31.00;47.40;;;;;;5074937;28;20438;-75
2022/07/18 09:58:17;;;;;;;35.97;1.10;;;30.90;46.60;;;;;;5093109;28;20031;-74
2022/07/18 10:00:43;;;;;;;0.50;0.50;;;30.90;45.50;;;;;;5074865;28;20507;-76
2022/07/18 10:03:09;;;;;;;0.60;0.60;;;31.60;45.50;;;;;;5074797;28;20089;-78
2022/07/18 10:05:38;;;;;;;0.77;0.60;;;32.00;45.00;;;;;;5092642;28;20032;-75
2022/07/18 10:08:11;;;;;;;0.75;0.75;;;32.10;44.50;;;;;;5074271;28;20031;-75
2022/07/18 10:10:38;;;;;;;2.08;1.08;;;31.40;44.00;;;;;;5092344;28;20028;-75
2022/07/18 10:13:05;;;;;;;0.50;0.50;;;31.40;45.00;;;;;;5092356;28;20407;-73
2022/07/18 10:15:35;;;;;;;0.50;0.50;;;31.40;45.20;;;;;;5092369;28;20377;-74
2022/07/18 10:18:11;;;;;;;1.27;0.50;;;31.30;44.10;;;;;;5092437;28;20469;-73
2022/07/18 10:20:41;;;;;;;0.43;0.40;;;30.90;45.00;;;;;;5092358;28;20025;-73
2022/07/18 10:23:13;;;;;;;0.60;0.60;;;31.00;44.60;;;;;;5092363;28;20059;-75
2022/07/18 10:25:39;;;;;;;0.40;0.40;;;31.10;44.90;;;;;;5074265;28;20070;-75
2022/07/18 10:28:13;;;;;;;0.47;0.47;;;31.20;45.00;;;;;;5092282;28;20485;-73
2022/07/18 10:30:45;;;;;;;0.40;0.40;;;31.50;45.90;;;;;;5092277;28;20157;-73
2022/07/18 10:33:40;;;;;;;2.40;0.80;;;32.00;45.00;;;;;;5092723;28;20387;-73
2022/07/18 10:36:25;;;;;;;1.23;0.40;;;31.90;45.20;;;;;;5092845;28;20376;-74
2022/07/18 10:39:13;;;;;;;0.50;0.50;;;31.90;44.80;;;;;;5092757;28;20146;-73
2022/07/18 10:41:39;;;;;;;2.88;1.00;;;31.70;43.50;;;;;;5092510;28;20111;-73
2022/07/18 10:44:23;;;;;;;1.05;0.65;;;31.50;43.60;;;;;;5092764;28;20048;-76
2022/07/18 10:47:09;;;;;;;1.17;0.82;;;31.70;43.40;;;;;;5096189;28;20055;-72
2022/07/18 10:49:47;;;;;;;0.25;0.25;;;32.10;42.00;;;;;;5078138;28;20020;-72
2022/07/18 10:52:25;;;;;;;0.83;0.83;;;32.50;41.30;;;;;;5096291;28;20031;-73
2022/07/18 10:55:03;;;;;;;0.40;0.40;;;33.10;40.90;;;;;;5078416;28;20278;-73
2022/07/18 10:57:30;;;;;;;0.50;0.50;;;33.50;41.80;;;;;;5078186;28;20024;-73
2022/07/18 11:00:16;;;;;;;0.55;0.55;;;33.60;40.60;;;;;;5078066;28;20028;-74
2022/07/18 11:02:46;;;;;;;0.47;0.47;;;33.80;40.40;;;;;;5096081;28;20094;-74
2022/07/18 11:05:27;;;;;;;0.98;0.75;;;34.40;40.40;;;;;;5095977;28;20024;-72
2022/07/18 11:08:01;;;;;;;8.07;0.90;;;34.90;38.90;;;;;;5095848;28;20016;-72
2022/07/18 11:10:54;;;;;;;3.83;3.35;;;35.00;40.40;;;;;;5078361;28;20120;-73
2022/07/18 11:13:29;;;;;;;0.30;0.30;;;35.30;39.40;;;;;;5096048;28;20057;-74
2022/07/18 11:16:06;;;;;;;2.22;2.05;;;35.00;38.70;;;;;;5096017;28;20507;-72
2022/07/18 11:18:44;;;;;;;0.43;0.43;;;35.10;40.00;;;;;;5077932;28;20048;-77
2022/07/18 11:21:23;;;;;;;0.68;0.68;;;35.10;38.90;;;;;;5095703;28;20448;-75
2022/07/18 11:23:51;;;;;;;0.45;0.45;;;35.60;39.20;;;;;;5077388;28;20070;-76
2022/07/18 11:26:22;;;;;;;0.20;0.20;;;34.70;37.70;;;;;;5095699;28;20106;-75
2022/07/18 11:28:55;;;;;;;0.73;0.73;;;34.30;39.60;;;;;;5077574;28;20043;-76
2022/07/18 11:31:21;;;;;;;1.70;0.47;;;34.10;40.80;;;;;;5077592;28;20023;-75
2022/07/18 11:33:49;;;;;;;1.27;0.70;;;34.20;40.30;;;;;;5095559;28;20016;-74
2022/07/18 11:36:20;;;;;;;0.43;0.40;;;34.50;38.30;;;;;;5095594;28;20028;-78
2022/07/18 11:38:48;;;;;;;1.02;0.50;;;34.70;38.20;;;;;;5095435;28;20027;-75
2022/07/18 11:41:14;;;;;;;0.45;0.45;;;34.50;38.70;;;;;;5095296;28;20503;-73
2022/07/18 11:43:42;;;;;;;0.35;0.35;;;34.10;38.70;;;;;;5077209;28;20472;-75
2022/07/18 11:46:13;;;;;;;3.23;0.73;;;34.30;41.50;;;;;;5095468;28;20103;-74
2022/07/18 11:48:39;;;;;;;0.22;0.22;;;35.00;39.60;;;;;;5077413;28;20020;-73
2022/07/18 11:51:18;;;;;;;5.82;0.52;;;35.70;37.30;;;;;;5098388;28;20034;-74
2022/07/18 11:53:51;;;;;;;0.88;0.43;;;36.60;38.50;;;;;;5105838;28;20283;-74
2022/07/18 11:56:18;;;;;;;0.68;0.60;;;36.80;37.00;;;;;;5105068;28;20020;-73
2022/07/18 11:58:46;;;;;;;0.25;0.25;;;36.60;37.80;;;;;;5102842;28;20020;-73
2022/07/18 12:01:13;;;;;;;0.45;0.45;;;36.50;37.30;;;;;;5103680;28;20055;-73
2022/07/18 12:03:44;;;;;;;0.40;0.40;;;35.50;37.90;;;;;;5094931;28;20056;-76
2022/07/18 12:06:19;;;;;;;10.45;0.80;;;35.70;38.40;;;;;;5095092;28;20028;-76
2022/07/18 12:08:51;;;;;;;1.40;0.95;;;35.40;38.40;;;;;;5076848;28;20476;-75
2022/07/18 12:11:20;;;;;;;0.75;0.75;;;35.60;37.00;;;;;;5076773;28;20020;-74
2022/07/18 12:13:56;;;;;;;0.30;0.30;;;35.60;38.30;;;;;;5094851;28;20072;-74
2022/07/18 12:16:34;;;;;;;3.78;0.85;;;36.00;36.70;;;;;;5076498;28;20086;-75
2022/07/18 12:19:10;;;;;;;0.40;0.40;;;36.20;36.60;;;;;;5095780;28;20107;-77
2022/07/18 12:21:53;;;;;;;1.17;0.90;;;36.60;36.80;;;;;;5084331;28;20074;-74
2022/07/18 12:24:29;;;;;;;2.92;0.65;;;36.60;36.40;;;;;;5101494;28;20022;-74
2022/07/18 12:27:18;;;;;;;2.28;1.00;;;37.00;36.80;;;;;;5084359;28;20020;-79
2022/07/18 12:30:16;;;;;;;0.47;0.47;;;36.80;36.20;;;;;;5103656;28;20020;-76
2022/07/18 12:32:48;;;;;;;3.10;1.05;;;36.40;37.30;;;;;;5046497;28;20047;-80
2022/07/18 12:35:19;;;;;;;0.38;0.38;;;36.90;38.10;;;;;;5076422;28;20426;-75
2022/07/18 12:38:15;;;;;;;0.50;0.50;;;36.90;36.30;;;;;;5076092;28;20058;-74
2022/07/18 12:40:44;;;;;;;0.90;0.60;;;36.60;35.80;;;;;;5077243;28;20032;-75
2022/07/18 12:43:35;;;;;;;0.70;0.70;;;36.40;36.10;;;;;;5076234;28;20024;-76
2022/07/18 12:46:05;;;;;;;0.82;0.82;;;36.30;37.00;;;;;;5094397;28;20024;-75
2022/07/18 12:48:32;;;;;;;0.52;0.40;;;36.60;36.80;;;;;;5094243;28;20051;-76
2022/07/18 12:51:04;;;;;;;0.82;0.77;;;36.60;37.50;;;;;;5094076;28;20099;-74
2022/07/18 12:53:31;;;;;;;0.47;0.47;;;37.00;37.40;;;;;;5075602;28;20492;-75